Time;durP1;ratioP1;P1;durP2;ratioP2;P2;SDS_P1;SDS_P2;PMS_P1;PMS_P2;Temp;Humidity;BMP_temperature;BMP_pressure;BME280_temperature;BME280_humidity;BME280_pressure;Samples;Min_cycle;Max_cycle;Signal;HPM_P1;HPM_P2
2022/08/06 00:01:19;;;;;;;0.40;0.40;;;15.60;99.90;;;;;;5092858;28;20270;-64
2022/08/06 00:04:07;;;;;;;0.40;0.40;;;15.50;99.90;;;;;;5094541;28;20441;-64
2022/08/06 00:06:55;;;;;;;0.50;0.50;;;15.40;99.90;;;;;;5092736;28;20450;-64
2022/08/06 00:09:43;;;;;;;0.73;0.73;;;15.40;99.90;;;;;;5092141;28;20418;-64
2022/08/06 00:12:46;;;;;;;0.50;0.50;;;15.40;99.90;;;;;;5093372;28;20584;-64
2022/08/06 00:15:35;;;;;;;0.50;0.50;;;15.50;99.90;;;;;;5093755;28;20732;-63
2022/08/06 00:18:43;;;;;;;0.43;0.43;;;15.30;99.90;;;;;;5093056;28;20503;-64
2022/08/06 00:21:31;;;;;;;0.50;0.50;;;15.20;99.90;;;;;;5093411;28;20473;-64
2022/08/06 00:24:29;;;;;;;0.50;0.50;;;15.20;99.90;;;;;;5092777;28;20808;-63
2022/08/06 00:27:19;;;;;;;0.40;0.40;;;15.20;99.90;;;;;;5092543;28;20575;-64
2022/08/06 00:30:19;;;;;;;0.40;0.40;;;15.10;99.90;;;;;;5092902;28;20497;-62
2022/08/06 00:33:09;;;;;;;0.70;0.70;;;15.20;99.90;;;;;;5092168;28;20685;-64
2022/08/06 00:36:03;;;;;;;0.50;0.50;;;15.10;99.90;;;;;;5087445;28;20447;-64
2022/08/06 00:38:51;;;;;;;0.50;0.50;;;15.00;99.90;;;;;;5071659;28;20430;-63
2022/08/06 00:41:39;;;;;;;0.77;0.77;;;14.90;99.90;;;;;;5072453;28;21009;-64
2022/08/06 00:44:33;;;;;;;0.40;0.40;;;15.00;99.90;;;;;;5072359;28;20426;-63
2022/08/06 00:47:22;;;;;;;0.40;0.40;;;15.00;99.90;;;;;;5071783;28;20505;-64
2022/08/06 00:50:31;;;;;;;0.50;0.50;;;14.80;99.90;;;;;;5072708;28;20472;-64
2022/08/06 00:53:19;;;;;;;0.60;0.60;;;14.80;99.90;;;;;;5072348;28;20423;-64
2022/08/06 00:56:07;;;;;;;0.50;0.50;;;14.80;99.90;;;;;;5076943;28;20477;-64
2022/08/06 00:58:58;;;;;;;0.40;0.40;;;14.70;99.90;;;;;;5077025;28;20431;-63
2022/08/06 01:01:51;;;;;;;0.73;0.73;;;14.70;99.90;;;;;;5076517;28;20462;-64
2022/08/06 01:04:40;;;;;;;0.40;0.40;;;14.60;99.90;;;;;;5077149;28;20941;-63
2022/08/06 01:07:28;;;;;;;0.50;0.50;;;14.60;99.90;;;;;;5077002;28;20974;-63
2022/08/06 01:10:36;;;;;;;0.40;0.40;;;14.60;99.90;;;;;;5076404;28;20557;-63
2022/08/06 01:13:30;;;;;;;0.50;0.50;;;14.60;99.90;;;;;;5076171;28;20429;-64
2022/08/06 01:16:43;;;;;;;0.50;0.50;;;14.50;99.90;;;;;;5076935;28;20554;-64
2022/08/06 01:19:47;;;;;;;0.60;0.60;;;14.40;99.90;;;;;;5076348;28;20427;-64
2022/08/06 01:23:20;;;;;;;0.50;0.50;;;14.40;99.90;;;;;;5076516;28;20498;-63
2022/08/06 01:26:29;;;;;;;0.50;0.50;;;14.30;99.90;;;;;;5076622;28;20846;-63
2022/08/06 01:29:23;;;;;;;0.70;0.70;;;14.20;99.90;;;;;;5075347;28;20423;-63
2022/08/06 01:32:29;;;;;;;0.50;0.50;;;14.20;99.90;;;;;;5075813;28;20947;-64
2022/08/06 01:35:26;;;;;;;0.50;0.50;;;14.20;99.90;;;;;;5075766;28;20935;-64
2022/08/06 01:38:38;;;;;;;0.50;0.50;;;14.10;99.90;;;;;;5055680;28;20507;-63
2022/08/06 01:41:40;;;;;;;1.10;1.00;;;14.00;99.90;;;;;;5055054;28;20644;-63
2022/08/06 01:44:49;;;;;;;2.43;0.70;;;14.00;99.90;;;;;;5056240;28;20430;-63
2022/08/06 01:47:39;;;;;;;0.50;0.50;;;14.00;99.90;;;;;;5056347;28;20834;-64
2022/08/06 01:50:45;;;;;;;0.90;0.50;;;13.90;99.90;;;;;;5055511;28;20424;-62
2022/08/06 01:53:37;;;;;;;0.50;0.50;;;13.80;99.90;;;;;;5056060;28;20932;-64
2022/08/06 01:56:50;;;;;;;0.50;0.50;;;13.80;99.90;;;;;;5056862;28;20446;-64
2022/08/06 01:59:49;;;;;;;0.50;0.50;;;13.70;99.90;;;;;;5062642;28;20522;-64
2022/08/06 02:02:44;;;;;;;0.47;0.47;;;13.70;99.90;;;;;;5074407;28;20438;-64
2022/08/06 02:05:35;;;;;;;0.50;0.50;;;13.60;99.90;;;;;;5074899;28;20501;-65
2022/08/06 02:08:43;;;;;;;0.50;0.50;;;13.70;99.90;;;;;;5075009;28;20524;-65
2022/08/06 02:11:35;;;;;;;0.50;0.50;;;13.60;99.90;;;;;;5074595;28;20805;-64
2022/08/06 02:14:52;;;;;;;0.53;0.53;;;13.60;99.90;;;;;;5074433;28;20576;-63
2022/08/06 02:17:45;;;;;;;0.67;0.67;;;13.60;99.90;;;;;;5074708;28;20509;-64
2022/08/06 02:20:58;;;;;;;1.23;1.13;;;13.40;99.90;;;;;;5074528;28;20557;-64
2022/08/06 02:24:07;;;;;;;0.50;0.50;;;13.40;99.90;;;;;;5074679;28;20430;-65
2022/08/06 02:27:00;;;;;;;0.50;0.50;;;13.40;99.90;;;;;;5073050;28;20450;-63
2022/08/06 02:29:52;;;;;;;0.50;0.50;;;13.40;99.90;;;;;;5074844;28;20427;-64
2022/08/06 02:32:54;;;;;;;0.40;0.40;;;13.30;99.90;;;;;;5074986;28;20415;-63
2022/08/06 02:35:48;;;;;;;0.50;0.50;;;13.30;99.90;;;;;;5077958;28;20427;-62
2022/08/06 02:38:46;;;;;;;0.50;0.50;;;13.30;99.90;;;;;;5096174;28;20422;-65
2022/08/06 02:41:44;;;;;;;0.50;0.50;;;13.20;99.90;;;;;;5095673;28;20477;-63
2022/08/06 02:44:49;;;;;;;0.50;0.50;;;13.20;99.90;;;;;;5095227;28;20432;-63
2022/08/06 02:47:43;;;;;;;0.50;0.50;;;13.30;99.90;;;;;;5095072;28;20856;-64
2022/08/06 02:50:50;;;;;;;0.50;0.50;;;13.30;99.90;;;;;;5094383;28;20930;-63
2022/08/06 02:53:44;;;;;;;0.50;0.50;;;13.40;99.90;;;;;;5094995;28;20441;-64
2022/08/06 02:56:59;;;;;;;0.50;0.50;;;13.20;99.90;;;;;;5095022;28;20966;-63
2022/08/06 02:59:54;;;;;;;0.40;0.40;;;13.20;99.90;;;;;;5094946;28;21011;-63
2022/08/06 03:02:46;;;;;;;0.50;0.50;;;13.20;99.90;;;;;;5094511;28;20485;-63
2022/08/06 03:05:37;;;;;;;0.50;0.50;;;13.20;99.90;;;;;;5095839;28;20419;-63
2022/08/06 03:08:44;;;;;;;0.57;0.57;;;13.10;99.90;;;;;;5095450;28;20418;-64
2022/08/06 03:11:35;;;;;;;0.40;0.40;;;13.10;99.90;;;;;;5094416;28;20544;-63
2022/08/06 03:14:26;;;;;;;0.50;0.50;;;13.10;99.90;;;;;;5094198;28;20429;-65
2022/08/06 03:17:35;;;;;;;0.47;0.47;;;13.10;99.90;;;;;;5092947;28;20523;-63
2022/08/06 03:20:24;;;;;;;0.60;0.60;;;13.10;99.90;;;;;;5094316;28;20455;-65
2022/08/06 03:23:18;;;;;;;0.40;0.40;;;13.00;99.90;;;;;;5094178;28;20419;-64
2022/08/06 03:26:09;;;;;;;0.40;0.40;;;13.10;99.90;;;;;;5094209;28;20825;-64
2022/08/06 03:29:00;;;;;;;0.40;0.40;;;13.20;99.90;;;;;;5094653;28;20434;-65
2022/08/06 03:31:49;;;;;;;0.97;0.97;;;13.00;99.90;;;;;;5094053;28;20423;-62
2022/08/06 03:34:47;;;;;;;0.50;0.50;;;12.90;99.90;;;;;;5094626;28;20427;-64
2022/08/06 03:37:41;;;;;;;0.50;0.50;;;13.10;99.90;;;;;;5075001;28;20451;-64
2022/08/06 03:40:50;;;;;;;0.50;0.50;;;12.90;99.90;;;;;;5073686;28;20458;-64
2022/08/06 03:43:38;;;;;;;0.50;0.50;;;12.80;99.90;;;;;;5074596;28;20431;-65
2022/08/06 03:46:59;;;;;;;0.40;0.40;;;13.00;99.90;;;;;;5073547;28;20497;-64
2022/08/06 03:49:53;;;;;;;0.50;0.50;;;12.90;99.90;;;;;;5073715;28;20515;-64
2022/08/06 03:52:47;;;;;;;0.53;0.53;;;12.90;99.90;;;;;;5073665;28;20465;-64
2022/08/06 03:55:39;;;;;;;0.50;0.50;;;12.90;99.90;;;;;;5074072;28;21009;-63
2022/08/06 03:58:30;;;;;;;0.50;0.50;;;12.90;99.90;;;;;;5074095;28;20430;-65
2022/08/06 04:01:23;;;;;;;0.40;0.40;;;13.00;99.90;;;;;;5073096;28;20462;-64
2022/08/06 04:04:12;;;;;;;0.60;0.60;;;13.00;99.90;;;;;;5072736;28;20423;-63
2022/08/06 04:07:16;;;;;;;0.40;0.40;;;13.00;99.90;;;;;;5066085;28;21077;-65
2022/08/06 04:10:12;;;;;;;0.50;0.50;;;13.00;99.90;;;;;;5072619;28;20431;-64
2022/08/06 04:13:11;;;;;;;0.77;0.60;;;13.00;99.90;;;;;;5084219;28;20827;-64
2022/08/06 04:16:20;;;;;;;0.40;0.40;;;13.00;99.90;;;;;;5093760;28;20495;-65
2022/08/06 04:19:20;;;;;;;1.27;1.27;;;12.90;99.90;;;;;;5093644;28;20425;-64
2022/08/06 04:22:20;;;;;;;0.50;0.50;;;13.00;99.90;;;;;;5093544;28;20537;-64
2022/08/06 04:25:41;;;;;;;0.47;0.47;;;13.00;99.90;;;;;;5081501;28;20562;-64
2022/08/06 04:28:34;;;;;;;2.83;0.70;;;13.00;99.90;;;;;;5072298;28;20958;-63
2022/08/06 04:31:30;;;;;;;0.50;0.50;;;13.00;99.90;;;;;;5072548;28;20430;-64
2022/08/06 04:34:39;;;;;;;0.40;0.40;;;12.90;99.90;;;;;;5073501;28;20424;-63
2022/08/06 04:37:48;;;;;;;0.50;0.50;;;13.00;99.90;;;;;;5072903;28;20435;-63
2022/08/06 04:40:43;;;;;;;0.43;0.43;;;13.00;99.90;;;;;;5072204;28;20501;-64
2022/08/06 04:43:41;;;;;;;0.50;0.50;;;13.00;99.90;;;;;;5072391;28;20423;-63
2022/08/06 04:46:48;;;;;;;0.50;0.50;;;13.00;99.90;;;;;;5072803;28;20807;-64
2022/08/06 04:49:36;;;;;;;0.50;0.50;;;13.00;99.90;;;;;;5073339;28;20431;-64
2022/08/06 04:52:44;;;;;;;0.50;0.50;;;12.90;99.90;;;;;;5072608;28;20446;-64
2022/08/06 04:55:37;;;;;;;0.50;0.50;;;12.90;99.90;;;;;;5072805;28;20927;-64
2022/08/06 04:58:28;;;;;;;0.50;0.50;;;12.90;99.90;;;;;;5072940;28;20423;-64
2022/08/06 05:01:20;;;;;;;0.50;0.50;;;13.00;99.90;;;;;;5079315;28;20459;-65
2022/08/06 05:04:14;;;;;;;0.50;0.50;;;12.90;99.90;;;;;;5093130;28;20859;-63
2022/08/06 05:07:10;;;;;;;0.50;0.50;;;13.00;99.90;;;;;;5092972;28;20529;-64
2022/08/06 05:10:00;;;;;;;0.50;0.50;;;13.00;99.90;;;;;;5093331;28;20425;-65
2022/08/06 05:12:54;;;;;;;1.07;0.97;;;13.00;99.90;;;;;;5092775;28;20841;-64
2022/08/06 05:15:51;;;;;;;0.50;0.50;;;13.00;99.90;;;;;;5092618;28;20421;-64
2022/08/06 05:18:45;;;;;;;0.80;0.80;;;13.00;99.90;;;;;;5093873;28;20430;-64
2022/08/06 05:21:56;;;;;;;0.83;0.83;;;13.00;99.90;;;;;;5092215;28;20503;-65
2022/08/06 05:25:00;;;;;;;0.47;0.47;;;13.10;99.90;;;;;;5093027;28;20483;-64
2022/08/06 05:28:07;;;;;;;0.50;0.50;;;13.10;99.90;;;;;;5093054;28;20422;-64
2022/08/06 05:31:00;;;;;;;0.60;0.60;;;13.30;99.90;;;;;;5093651;28;20423;-64
2022/08/06 05:33:48;;;;;;;0.80;0.73;;;13.20;99.90;;;;;;5092757;28;20422;-64
2022/08/06 05:36:36;;;;;;;0.50;0.50;;;13.30;99.90;;;;;;5091686;28;20855;-64
2022/08/06 05:39:26;;;;;;;0.50;0.50;;;13.40;99.90;;;;;;5092459;28;20418;-63
2022/08/06 05:42:34;;;;;;;0.90;0.70;;;13.50;99.90;;;;;;5097057;28;20461;-65
2022/08/06 05:45:24;;;;;;;0.50;0.50;;;13.60;99.90;;;;;;5095706;28;20484;-63
2022/08/06 05:48:18;;;;;;;0.73;0.53;;;13.60;99.90;;;;;;5096385;28;20551;-64
2022/08/06 05:51:23;;;;;;;0.80;0.80;;;13.70;99.90;;;;;;5095494;28;20422;-64
2022/08/06 05:54:35;;;;;;;0.87;0.87;;;13.90;99.90;;;;;;5096288;28;20491;-64
2022/08/06 05:57:32;;;;;;;0.50;0.50;;;13.80;99.90;;;;;;5096294;28;20434;-64
2022/08/06 06:00:32;;;;;;;0.50;0.50;;;13.90;99.90;;;;;;5095470;28;20960;-63
2022/08/06 06:03:32;;;;;;;0.40;0.40;;;14.00;99.90;;;;;;5056270;28;20466;-64
2022/08/06 06:06:22;;;;;;;0.50;0.50;;;14.10;99.90;;;;;;5055714;28;20444;-64
2022/08/06 06:09:13;;;;;;;0.97;0.93;;;14.20;99.90;;;;;;5054972;28;20952;-64
2022/08/06 06:12:02;;;;;;;0.50;0.50;;;14.30;99.90;;;;;;5055020;28;20805;-64
2022/08/06 06:14:52;;;;;;;0.60;0.60;;;14.40;99.90;;;;;;5055556;28;20782;-65
2022/08/06 06:17:52;;;;;;;0.60;0.60;;;14.50;99.90;;;;;;5054097;28;20452;-63
2022/08/06 06:20:53;;;;;;;0.57;0.53;;;14.50;99.90;;;;;;5054737;28;20419;-64
2022/08/06 06:24:14;;;;;;;0.40;0.40;;;14.70;99.90;;;;;;5054582;28;20952;-64
2022/08/06 06:27:15;;;;;;;0.50;0.50;;;14.70;99.90;;;;;;5054525;28;20444;-64
2022/08/06 06:30:27;;;;;;;10.43;0.97;;;14.80;99.90;;;;;;5054267;28;20784;-64
2022/08/06 06:33:37;;;;;;;0.50;0.50;;;14.90;99.90;;;;;;5054823;28;20431;-64
2022/08/06 06:36:42;;;;;;;0.40;0.40;;;15.10;99.90;;;;;;5054395;28;20951;-63
2022/08/06 06:39:39;;;;;;;0.83;0.80;;;15.10;99.90;;;;;;5054731;28;20941;-64
2022/08/06 06:42:37;;;;;;;0.50;0.50;;;15.10;99.90;;;;;;5053664;28;20585;-63
2022/08/06 06:45:33;;;;;;;0.40;0.40;;;15.10;99.90;;;;;;5054354;28;20420;-64
2022/08/06 06:48:48;;;;;;;0.50;0.50;;;15.10;99.90;;;;;;5053722;28;20455;-63
2022/08/06 06:51:43;;;;;;;0.40;0.40;;;15.20;99.90;;;;;;5053418;28;20420;-64
2022/08/06 06:55:02;;;;;;;0.50;0.50;;;15.30;99.90;;;;;;5054293;28;20940;-63
2022/08/06 06:57:59;;;;;;;0.50;0.50;;;15.40;99.90;;;;;;5055128;28;20444;-63
2022/08/06 07:00:48;;;;;;;0.50;0.50;;;15.40;99.90;;;;;;5057794;28;20847;-63
2022/08/06 07:03:58;;;;;;;0.50;0.50;;;15.50;99.90;;;;;;5094542;28;20458;-65
2022/08/06 07:06:54;;;;;;;0.50;0.50;;;15.50;99.90;;;;;;5094641;28;20465;-64
2022/08/06 07:09:47;;;;;;;0.40;0.40;;;15.70;99.90;;;;;;5093775;28;20492;-64
2022/08/06 07:12:48;;;;;;;1.57;0.60;;;15.70;99.90;;;;;;5094628;28;20425;-64
2022/08/06 07:15:42;;;;;;;0.40;0.40;;;15.80;99.90;;;;;;5093441;28;20480;-64
2022/08/06 07:18:42;;;;;;;0.50;0.50;;;15.80;99.90;;;;;;5095820;28;20433;-63
2022/08/06 07:21:41;;;;;;;0.47;0.47;;;15.90;99.90;;;;;;5094809;28;20422;-63
2022/08/06 07:24:43;;;;;;;0.40;0.40;;;15.90;99.90;;;;;;5094084;28;20560;-63
2022/08/06 07:27:36;;;;;;;0.50;0.50;;;16.00;99.90;;;;;;5095159;28;20994;-64
2022/08/06 07:30:33;;;;;;;0.50;0.50;;;16.20;99.90;;;;;;5094964;28;20422;-63
2022/08/06 07:33:23;;;;;;;0.50;0.50;;;16.20;99.90;;;;;;5095802;28;20421;-64
2022/08/06 07:36:16;;;;;;;0.50;0.50;;;16.30;99.90;;;;;;5094749;28;20434;-63
2022/08/06 07:39:08;;;;;;;0.40;0.40;;;16.20;99.90;;;;;;5094286;28;20608;-64
2022/08/06 07:42:09;;;;;;;0.50;0.50;;;16.30;99.90;;;;;;5093963;28;20672;-63
2022/08/06 07:45:02;;;;;;;0.60;0.60;;;16.40;99.90;;;;;;5094021;28;20224;-64
2022/08/06 07:48:00;;;;;;;0.50;0.50;;;16.50;99.90;;;;;;5095368;28;20529;-64
2022/08/06 07:50:51;;;;;;;0.40;0.40;;;16.50;99.90;;;;;;5093816;28;20259;-64
2022/08/06 07:53:43;;;;;;;0.50;0.50;;;16.60;99.90;;;;;;5094008;28;20188;-64
2022/08/06 07:56:47;;;;;;;0.40;0.40;;;16.60;99.90;;;;;;5094343;28;20227;-64
2022/08/06 07:59:51;;;;;;;0.50;0.50;;;16.70;99.90;;;;;;5094373;28;20196;-65
2022/08/06 08:06:17;;;;;;;0.40;0.40;;;16.80;99.90;;;;;;5075248;28;20311;-64
2022/08/06 08:09:03;;;;;;;0.50;0.50;;;17.10;99.90;;;;;;5073508;28;20246;-63
2022/08/06 08:11:52;;;;;;;0.40;0.40;;;17.40;99.90;;;;;;5073230;28;20939;-65
2022/08/06 08:15:03;;;;;;;0.40;0.40;;;17.40;99.90;;;;;;5074322;28;20200;-64
2022/08/06 08:18:05;;;;;;;0.90;0.90;;;17.40;99.90;;;;;;5073170;28;20212;-66
2022/08/06 08:20:53;;;;;;;0.60;0.60;;;17.50;99.90;;;;;;5072380;28;20201;-64
2022/08/06 08:23:43;;;;;;;0.40;0.40;;;17.50;99.90;;;;;;5073740;28;20204;-66
2022/08/06 08:26:33;;;;;;;0.40;0.40;;;17.60;99.90;;;;;;5073004;28;20223;-64
2022/08/06 08:29:43;;;;;;;0.70;0.70;;;17.70;99.90;;;;;;5071924;28;20199;-63
2022/08/06 08:32:44;;;;;;;0.40;0.40;;;17.70;99.90;;;;;;5073367;28;20283;-64
2022/08/06 08:35:34;;;;;;;1.67;0.80;;;17.70;99.90;;;;;;5073671;28;20252;-65
2022/08/06 08:38:25;;;;;;;0.40;0.40;;;17.80;99.90;;;;;;5075456;28;20207;-67
2022/08/06 08:41:20;;;;;;;0.50;0.50;;;18.00;99.90;;;;;;5077246;28;20200;-65
2022/08/06 08:44:11;;;;;;;0.40;0.40;;;18.30;99.90;;;;;;5077768;28;20228;-65
2022/08/06 08:47:00;;;;;;;0.40;0.40;;;18.40;99.90;;;;;;5079072;28;20221;-67
2022/08/06 08:49:52;;;;;;;0.40;0.40;;;18.50;99.90;;;;;;5079235;28;20311;-66
2022/08/06 08:52:45;;;;;;;0.40;0.40;;;18.40;99.90;;;;;;5077474;28;20200;-64
2022/08/06 08:55:35;;;;;;;0.40;0.40;;;18.50;99.90;;;;;;5078630;28;20662;-65
2022/08/06 08:58:43;;;;;;;0.40;0.40;;;18.60;99.90;;;;;;5079351;28;20274;-68
2022/08/06 09:01:53;;;;;;;0.40;0.40;;;18.60;99.90;;;;;;5089711;28;20558;-64
2022/08/06 09:04:45;;;;;;;0.57;0.57;;;18.90;99.90;;;;;;5100810;28;20220;-65
2022/08/06 09:07:35;;;;;;;0.40;0.40;;;19.10;99.90;;;;;;5101064;28;20216;-65
2022/08/06 09:10:25;;;;;;;0.40;0.40;;;19.00;99.90;;;;;;5099560;28;20196;-65
2022/08/06 09:13:15;;;;;;;0.50;0.50;;;18.90;99.90;;;;;;5099615;28;20211;-64
2022/08/06 09:16:14;;;;;;;0.50;0.50;;;18.80;99.90;;;;;;5101075;28;20239;-63
2022/08/06 09:19:06;;;;;;;0.70;0.70;;;18.60;99.90;;;;;;5097932;28;20271;-65
2022/08/06 09:21:59;;;;;;;0.40;0.40;;;18.50;99.90;;;;;;5096267;28;20199;-68
2022/08/06 09:24:49;;;;;;;0.40;0.40;;;18.60;99.90;;;;;;5095813;28;20222;-65
2022/08/06 09:27:38;;;;;;;0.50;0.50;;;18.70;99.90;;;;;;5094127;28;20220;-66
2022/08/06 09:30:35;;;;;;;0.65;0.65;;;19.10;99.90;;;;;;5094486;28;20200;-65
2022/08/06 09:33:24;;;;;;;0.40;0.40;;;19.20;99.90;;;;;;5094301;28;20204;-69
2022/08/06 09:36:43;;;;;;;0.40;0.40;;;19.40;99.90;;;;;;5094684;28;20308;-68
2022/08/06 09:39:39;;;;;;;0.80;0.50;;;19.50;99.90;;;;;;5081895;28;20199;-64
2022/08/06 09:42:51;;;;;;;0.40;0.40;;;19.40;99.90;;;;;;5073917;28;20724;-66
2022/08/06 09:45:45;;;;;;;0.40;0.40;;;19.00;99.90;;;;;;5074107;28;20223;-66
2022/08/06 09:48:34;;;;;;;0.70;0.70;;;18.90;99.90;;;;;;5073775;28;20201;-63
2022/08/06 09:51:22;;;;;;;0.40;0.40;;;18.90;99.90;;;;;;5075197;28;20204;-64
2022/08/06 09:54:37;;;;;;;0.40;0.40;;;19.10;99.70;;;;;;5074809;28;20354;-65
2022/08/06 09:57:40;;;;;;;0.40;0.40;;;19.40;99.90;;;;;;5072841;28;20220;-68
2022/08/06 10:00:32;;;;;;;0.40;0.40;;;19.60;99.10;;;;;;5073339;28;20680;-65
2022/08/06 10:03:20;;;;;;;0.40;0.40;;;19.70;99.20;;;;;;5053357;28;20197;-68
2022/08/06 10:06:28;;;;;;;0.40;0.40;;;20.00;98.60;;;;;;5053808;28;20645;-65
2022/08/06 10:09:16;;;;;;;0.50;0.50;;;19.90;98.20;;;;;;5052466;28;20193;-66
2022/08/06 10:12:25;;;;;;;0.40;0.40;;;20.00;96.10;;;;;;5053874;28;20352;-67
2022/08/06 10:15:30;;;;;;;0.40;0.40;;;20.30;96.20;;;;;;5053702;28;20194;-66
2022/08/06 10:18:41;;;;;;;0.40;0.40;;;20.70;95.50;;;;;;5054365;28;20217;-67
2022/08/06 10:21:45;;;;;;;0.40;0.40;;;21.00;94.90;;;;;;5053932;28;20239;-68
2022/08/06 10:24:37;;;;;;;0.40;0.40;;;21.60;94.70;;;;;;5053750;28;20693;-67
2022/08/06 10:27:35;;;;;;;0.40;0.40;;;21.80;93.80;;;;;;5052353;28;20216;-68
2022/08/06 10:30:28;;;;;;;0.40;0.40;;;21.80;93.80;;;;;;5051843;28;20212;-66
2022/08/06 10:33:29;;;;;;;0.43;0.43;;;21.20;92.00;;;;;;5053484;28;20241;-66
2022/08/06 10:36:23;;;;;;;0.40;0.40;;;20.60;93.20;;;;;;5051881;28;20217;-68
2022/08/06 10:39:15;;;;;;;0.50;0.50;;;20.40;93.90;;;;;;5052910;28;20197;-68
2022/08/06 10:42:24;;;;;;;0.40;0.40;;;20.50;94.00;;;;;;5052244;28;20271;-68
2022/08/06 10:45:13;;;;;;;0.40;0.40;;;20.90;93.60;;;;;;5051586;28;20279;-65
2022/08/06 10:48:05;;;;;;;0.50;0.50;;;21.30;92.80;;;;;;5051836;28;20678;-68
2022/08/06 10:51:16;;;;;;;0.40;0.40;;;21.40;92.30;;;;;;5052639;28;20247;-67
2022/08/06 10:54:25;;;;;;;0.40;0.40;;;21.40;92.00;;;;;;5053341;28;20686;-66
2022/08/06 10:57:14;;;;;;;0.40;0.40;;;21.60;92.10;;;;;;5052049;28;20640;-67
2022/08/06 11:00:22;;;;;;;0.40;0.40;;;21.80;92.10;;;;;;5052078;28;20276;-67
2022/08/06 11:03:17;;;;;;;0.40;0.40;;;21.80;92.30;;;;;;5052583;28;20716;-64
2022/08/06 11:06:20;;;;;;;0.50;0.50;;;21.60;92.70;;;;;;5051495;28;20627;-67
2022/08/06 11:09:27;;;;;;;0.82;0.73;;;21.20;92.80;;;;;;5052013;28;20193;-68
2022/08/06 11:12:46;;;;;;;0.52;0.50;;;20.90;92.70;;;;;;5052179;28;20246;-65
2022/08/06 11:15:40;;;;;;;0.50;0.50;;;20.80;92.30;;;;;;5052389;28;20579;-67
2022/08/06 11:18:28;;;;;;;0.40;0.40;;;21.00;91.40;;;;;;5051715;28;20614;-65
2022/08/06 11:21:36;;;;;;;0.43;0.43;;;21.00;90.80;;;;;;5052697;28;20284;-69
2022/08/06 11:24:52;;;;;;;0.50;0.50;;;21.30;91.10;;;;;;5052393;28;20300;-65
2022/08/06 11:27:51;;;;;;;0.50;0.50;;;21.50;91.00;;;;;;5051495;28;20221;-67
2022/08/06 11:30:42;;;;;;;0.40;0.40;;;21.40;87.40;;;;;;5052036;28;20227;-67
2022/08/06 11:34:02;;;;;;;0.40;0.40;;;21.30;88.60;;;;;;5051606;28;20585;-69
2022/08/06 11:36:54;;;;;;;0.50;0.50;;;21.20;88.20;;;;;;5051670;28;20213;-69
2022/08/06 11:40:06;;;;;;;0.50;0.50;;;21.50;89.60;;;;;;5051707;28;20208;-67
2022/08/06 11:42:55;;;;;;;0.40;0.40;;;21.90;89.80;;;;;;5051614;28;20287;-66
2022/08/06 11:46:16;;;;;;;0.40;0.40;;;22.10;86.70;;;;;;5051391;28;20232;-67
2022/08/06 11:49:24;;;;;;;0.50;0.50;;;21.90;85.50;;;;;;5051984;28;20205;-66
2022/08/06 11:55:17;;;;;;;0.40;0.40;;;21.50;84.90;;;;;;5109978;27;20507;-66
2022/08/06 11:58:20;;;;;;;0.40;0.40;;;21.80;85.50;;;;;;5087927;28;20548;-63
2022/08/06 12:01:10;;;;;;;0.40;0.40;;;22.00;86.20;;;;;;5107713;28;20438;-65
2022/08/06 12:04:42;;;;;;;0.40;0.40;;;22.20;85.20;;;;;;5109280;28;20198;-64
2022/08/06 12:07:32;;;;;;;0.40;0.40;;;21.80;84.30;;;;;;5098324;22;20426;-67
2022/08/06 12:10:25;;;;;;;0.40;0.40;;;21.60;83.40;;;;;;5069941;28;20693;-67
2022/08/06 12:13:38;;;;;;;0.50;0.50;;;21.60;84.60;;;;;;5090263;28;20216;-67
2022/08/06 12:16:44;;;;;;;0.60;0.50;;;21.90;83.50;;;;;;5091517;28;20227;-68
2022/08/06 12:19:45;;;;;;;0.40;0.40;;;22.00;82.80;;;;;;5089559;28;20206;-67
2022/08/06 12:22:51;;;;;;;0.40;0.40;;;22.20;82.40;;;;;;5091095;28;20686;-67
2022/08/06 12:25:43;;;;;;;0.40;0.40;;;22.50;80.10;;;;;;5090929;28;20196;-67
2022/08/06 12:28:34;;;;;;;0.40;0.40;;;22.40;81.60;;;;;;5094481;28;20257;-67
2022/08/06 12:31:35;;;;;;;0.40;0.40;;;22.20;81.60;;;;;;5096535;28;20200;-67
2022/08/06 12:34:39;;;;;;;0.40;0.40;;;22.20;81.80;;;;;;5096119;28;20224;-66
2022/08/06 12:37:46;;;;;;;0.40;0.40;;;22.30;81.90;;;;;;5090768;28;20216;-67
2022/08/06 12:40:38;;;;;;;0.40;0.40;;;22.20;81.10;;;;;;5090777;28;20711;-67
2022/08/06 12:43:30;;;;;;;0.40;0.40;;;22.50;79.80;;;;;;5089886;28;20203;-67
2022/08/06 12:46:38;;;;;;;0.40;0.40;;;22.40;80.00;;;;;;5091206;28;20295;-67
2022/08/06 12:49:31;;;;;;;0.40;0.40;;;22.20;80.80;;;;;;5090231;28;20582;-67
2022/08/06 12:52:30;;;;;;;0.50;0.50;;;22.80;80.00;;;;;;5090764;28;20255;-67
2022/08/06 12:55:20;;;;;;;0.40;0.40;;;24.40;78.20;;;;;;5088735;28;20231;-67
2022/08/06 12:58:10;;;;;;;0.40;0.40;;;25.30;73.50;;;;;;5089879;28;20676;-68
2022/08/06 13:01:21;;;;;;;0.40;0.40;;;25.40;73.90;;;;;;5089222;28;20221;-67
2022/08/06 13:04:29;;;;;;;0.40;0.40;;;24.80;73.80;;;;;;5089130;28;20330;-67
2022/08/06 13:07:19;;;;;;;0.40;0.40;;;24.20;75.50;;;;;;5075868;28;20286;-67
2022/08/06 13:10:10;;;;;;;0.40;0.40;;;24.70;74.50;;;;;;5079454;28;20193;-68
2022/08/06 13:13:18;;;;;;;0.40;0.40;;;24.60;73.80;;;;;;5075450;28;20242;-67
2022/08/06 13:16:38;;;;;;;0.40;0.40;;;24.00;73.80;;;;;;5076893;28;20790;-67
2022/08/06 13:19:51;;;;;;;0.40;0.40;;;23.50;75.20;;;;;;5076025;28;20196;-67
2022/08/06 13:22:49;;;;;;;0.40;0.40;;;23.30;74.80;;;;;;5078182;28;20683;-67
2022/08/06 13:25:42;;;;;;;0.40;0.40;;;24.60;75.60;;;;;;5077865;28;20746;-67
2022/08/06 13:28:40;;;;;;;0.40;0.40;;;26.40;71.70;;;;;;5076532;28;20208;-67
2022/08/06 13:32:03;;;;;;;0.40;0.40;;;26.50;67.20;;;;;;5079065;28;20275;-67
2022/08/06 13:35:11;;;;;;;0.40;0.40;;;26.50;66.60;;;;;;5076780;28;20309;-68
2022/08/06 13:38:05;;;;;;;0.40;0.40;;;28.20;61.70;;;;;;5077251;28;20204;-68
2022/08/06 13:41:04;;;;;;;0.40;0.40;;;27.70;60.70;;;;;;5076873;28;20207;-68
2022/08/06 13:43:56;;;;;;;0.40;0.40;;;26.60;62.40;;;;;;5079014;28;20260;-68
2022/08/06 13:46:45;;;;;;;0.40;0.40;;;25.10;65.20;;;;;;5075759;28;20231;-67
2022/08/06 13:49:41;;;;;;;0.40;0.40;;;23.90;67.80;;;;;;5075559;28;20200;-67
2022/08/06 13:52:49;;;;;;;2.83;0.50;;;23.40;69.60;;;;;;5076699;28;20196;-67
2022/08/06 13:55:48;;;;;;;0.40;0.40;;;23.50;69.30;;;;;;5075130;28;20739;-67
2022/08/06 13:58:50;;;;;;;0.40;0.40;;;23.60;70.00;;;;;;5075467;28;20281;-68
2022/08/06 14:01:39;;;;;;;0.40;0.40;;;24.00;68.00;;;;;;5075955;28;20196;-68
2022/08/06 14:04:32;;;;;;;0.40;0.40;;;23.60;68.60;;;;;;5076315;28;20294;-68
2022/08/06 14:07:22;;;;;;;0.40;0.40;;;23.30;69.20;;;;;;5074585;28;20228;-68
2022/08/06 14:10:19;;;;;;;0.40;0.40;;;24.70;68.40;;;;;;5075063;28;20196;-68
2022/08/06 14:13:17;;;;;;;0.40;0.40;;;26.30;65.10;;;;;;5075677;28;20200;-68
2022/08/06 14:16:07;;;;;;;0.40;0.40;;;27.30;62.30;;;;;;5075813;28;20225;-68
2022/08/06 14:18:55;;;;;;;0.40;0.40;;;27.30;60.90;;;;;;5074147;28;20238;-68
2022/08/06 14:22:04;;;;;;;0.40;0.40;;;27.10;61.20;;;;;;5076067;28;20246;-67
2022/08/06 14:24:54;;;;;;;0.40;0.40;;;27.10;59.00;;;;;;5076227;28;20747;-67
2022/08/06 14:27:43;;;;;;;0.50;0.50;;;28.50;57.80;;;;;;5074299;28;20834;-68
2022/08/06 14:30:32;;;;;;;0.50;0.50;;;30.10;56.90;;;;;;5073997;28;20207;-68
2022/08/06 14:33:26;;;;;;;0.52;0.50;;;32.10;52.60;;;;;;5075056;28;20592;-69
2022/08/06 14:36:25;;;;;;;0.47;0.47;;;33.00;49.20;;;;;;5080375;28;20228;-69
2022/08/06 14:39:15;;;;;;;0.40;0.40;;;32.00;50.30;;;;;;5079265;28;20207;-68
2022/08/06 14:45:34;;;;;;;1.48;1.15;;;33.50;48.60;;;;;;5077103;28;20215;-69
2022/08/06 14:48:26;;;;;;;0.50;0.50;;;34.40;48.10;;;;;;5078542;28;20205;-69
2022/08/06 14:51:18;;;;;;;0.40;0.40;;;35.40;46.10;;;;;;5074334;28;20200;-69
2022/08/06 14:54:10;;;;;;;0.40;0.40;;;33.80;46.00;;;;;;5074014;28;20197;-69
2022/08/06 14:57:03;;;;;;;0.40;0.40;;;31.70;48.00;;;;;;5076013;28;20217;-69
2022/08/06 15:00:05;;;;;;;0.63;0.63;;;32.50;47.70;;;;;;5077817;28;20215;-69
2022/08/06 15:02:53;;;;;;;0.40;0.40;;;34.70;45.00;;;;;;5078740;28;20205;-69
2022/08/06 15:05:42;;;;;;;0.40;0.40;;;35.10;43.90;;;;;;5077533;28;20231;-69
2022/08/06 15:08:51;;;;;;;0.40;0.40;;;35.80;43.30;;;;;;5073740;28;20283;-71
2022/08/06 15:11:39;;;;;;;0.50;0.50;;;36.30;42.40;;;;;;5071104;28;20200;-69
2022/08/06 15:14:47;;;;;;;0.43;0.43;;;36.70;39.90;;;;;;5072413;28;20220;-70
2022/08/06 15:17:39;;;;;;;0.40;0.40;;;36.20;39.70;;;;;;5072035;28;20225;-70
2022/08/06 15:20:47;;;;;;;0.40;0.40;;;36.50;40.40;;;;;;5072404;28;20234;-69
2022/08/06 15:23:36;;;;;;;0.40;0.40;;;37.50;40.30;;;;;;5071534;28;20203;-68
2022/08/06 15:26:41;;;;;;;0.40;0.40;;;39.30;38.90;;;;;;5071698;28;20611;-68
2022/08/06 15:29:36;;;;;;;0.40;0.40;;;40.60;37.50;;;;;;5070960;28;20197;-68
2022/08/06 15:32:24;;;;;;;0.40;0.40;;;38.60;36.80;;;;;;5072273;28;20204;-68
2022/08/06 15:35:15;;;;;;;0.40;0.40;;;37.70;38.80;;;;;;5071887;28;20243;-68
2022/08/06 15:38:03;;;;;;;0.40;0.40;;;37.90;37.90;;;;;;5071131;28;20197;-68